KLAA

Lamar Municipal Airport

Lamar, Colorado, USA
METAR KLAA 232053Z AUTO 15011KT 10SM FEW041 21/09 A3016 RMK AO2 SLP194 T02060089 56026
Observed Flight Rules
Oct-23 @ 20:53 UTC (33 minutes ago) Visual Flight Rules
Wind Visibility Clouds
150° at 11 knots 10 miles
  • Few at 4,100' AGL
Temperatures Readings
Current 21°C / 70°F
Dewpoint 9°C / 48°F
Humidity 46%
Altimeter 30.16" Hg
Pressure 1019.4 hPa
Elevation 1119
METAR KLAA 232053Z AUTO 15011KT 10SM FEW041 21/09 A3016 RMK AO2 SLP194 T02060089 56026
Observed Flight Rules
Oct-23 @ 20:53 UTC
(33 minutes ago)
VFR
Wind Visibility
150° at 11 knots 10 miles
Clouds
  • Few at 4,100' AGL
Temperature Dewpoint
21°C / 70°F 9°C / 48°F
Humidity Altimeter Pressure
46% 30.16" Hg 1019.4 hPa